createdAt,value
2022-12-13T00:01:16.035Z,53.30
2022-12-13T00:03:44.319Z,53.70
2022-12-13T00:06:12.067Z,53.50
2022-12-13T00:08:39.565Z,53.90
2022-12-13T00:11:08.576Z,53.80
2022-12-13T00:13:35.535Z,53.70
2022-12-13T00:16:05.774Z,53.90
2022-12-13T00:18:33.731Z,54.10
2022-12-13T00:21:03.989Z,54.10
2022-12-13T00:23:30.934Z,53.90
2022-12-13T00:26:12.865Z,53.90
2022-12-13T00:28:40.583Z,53.70
2022-12-13T00:31:35.212Z,53.80
2022-12-13T00:33:55.221Z,53.80
2022-12-13T00:36:22.256Z,53.70
2022-12-13T00:39:00.668Z,54.10
2022-12-13T00:41:33.532Z,53.70
2022-12-13T00:44:01.840Z,53.60
2022-12-13T00:46:29.772Z,53.90
2022-12-13T00:48:59.364Z,53.80
2022-12-13T00:51:28.260Z,53.80
2022-12-13T00:53:55.712Z,53.60
2022-12-13T00:56:25.733Z,53.60
2022-12-13T00:58:53.456Z,53.60
2022-12-13T01:01:24.659Z,53.80
2022-12-13T01:03:54.164Z,53.50
2022-12-13T01:06:31.320Z,53.50
2022-12-13T01:08:58.356Z,53.70
2022-12-13T01:11:25.559Z,53.70
2022-12-13T01:13:52.516Z,53.80
2022-12-13T01:16:19.444Z,53.50
2022-12-13T01:18:46.509Z,52.80
2022-12-13T01:21:15.594Z,53.10
2022-12-13T01:23:43.759Z,53.50
2022-12-13T01:26:16.050Z,52.90
2022-12-13T01:28:43.598Z,52.90
2022-12-13T01:31:13.785Z,53.20
2022-12-13T01:33:41.659Z,52.50
2022-12-13T01:36:14.823Z,52.30
2022-12-13T01:38:42.640Z,52.50
2022-12-13T01:41:17.886Z,52.40
2022-12-13T01:43:47.844Z,52.20
2022-12-13T01:46:16.485Z,52.50
2022-12-13T01:48:59.344Z,52.50
2022-12-13T01:51:44.113Z,52.40
2022-12-13T01:54:20.953Z,51.90
2022-12-13T01:57:00.611Z,52.10
2022-12-13T01:59:28.926Z,52.00
2022-12-13T02:02:01.035Z,52.20
2022-12-13T02:04:44.613Z,52.40
2022-12-13T02:07:22.521Z,51.70
2022-12-13T02:09:56.647Z,52.10
2022-12-13T02:12:32.739Z,51.70
2022-12-13T02:15:02.500Z,51.90
2022-12-13T02:17:45.493Z,51.80
2022-12-13T02:20:46.644Z,51.40
2022-12-13T02:23:32.173Z,51.40
2022-12-13T02:26:19.908Z,51.50
2022-12-13T02:29:31.823Z,51.40
2022-12-13T02:32:08.831Z,51.20
2022-12-13T02:34:45.986Z,51.50
2022-12-13T02:37:24.682Z,51.20
2022-12-13T02:40:00.247Z,51.30
2022-12-13T02:42:38.440Z,51.60
2022-12-13T02:45:17.189Z,51.40
2022-12-13T02:47:48.397Z,50.90
2022-12-13T02:50:15.899Z,51.30
2022-12-13T02:52:46.629Z,51.20
2022-12-13T02:55:16.607Z,51.20
2022-12-13T02:57:45.417Z,51.70
2022-12-13T03:00:37.157Z,51.40
2022-12-13T03:03:48.049Z,52.10
2022-12-13T03:06:52.090Z,50.90
2022-12-13T03:09:36.185Z,50.90
2022-12-13T03:12:36.573Z,50.90
2022-12-13T03:15:36.520Z,51.10
2022-12-13T03:18:19.109Z,51.50
2022-12-13T03:20:55.317Z,50.70
2022-12-13T03:23:22.727Z,50.90
2022-12-13T03:25:53.374Z,50.60
2022-12-13T03:28:20.879Z,50.60
2022-12-13T03:30:48.336Z,50.50
2022-12-13T03:33:15.899Z,50.60
2022-12-13T03:35:45.801Z,50.10
2022-12-13T03:38:22.181Z,49.60
2022-12-13T03:40:56.185Z,50.00
2022-12-13T03:43:23.763Z,50.00
2022-12-13T03:45:54.566Z,49.40
2022-12-13T03:48:23.239Z,49.80
2022-12-13T03:50:52.508Z,49.80
2022-12-13T03:53:22.998Z,51.10
2022-12-13T03:56:04.774Z,49.20
2022-12-13T03:58:35.250Z,49.60
2022-12-13T04:01:09.481Z,50.00
2022-12-13T04:03:38.419Z,50.00
2022-12-13T04:06:06.023Z,49.90
2022-12-13T04:08:34.224Z,50.20
2022-12-13T04:11:21.197Z,49.80
2022-12-13T04:13:49.274Z,49.80
2022-12-13T04:16:16.310Z,49.90
2022-12-13T04:18:43.478Z,49.20
2022-12-13T04:21:10.535Z,50.00
2022-12-13T04:23:37.421Z,49.30
2022-12-13T04:26:04.314Z,49.20
2022-12-13T04:28:31.161Z,49.60
2022-12-13T04:30:58.055Z,49.30
2022-12-13T04:33:25.291Z,49.30
2022-12-13T04:35:52.355Z,49.40
2022-12-13T04:38:19.671Z,49.30
2022-12-13T04:40:46.574Z,48.90
2022-12-13T04:43:13.461Z,49.50
2022-12-13T04:45:40.965Z,49.60
2022-12-13T04:48:08.501Z,49.80
2022-12-13T04:50:35.500Z,50.20
2022-12-13T04:53:02.461Z,50.00
2022-12-13T04:55:29.417Z,48.90
2022-12-13T04:57:56.314Z,49.30
2022-12-13T05:00:23.395Z,49.60
2022-12-13T05:02:51.095Z,49.80
2022-12-13T05:05:18.719Z,50.20
2022-12-13T05:07:45.917Z,50.10
2022-12-13T05:10:15.525Z,50.50
2022-12-13T05:13:00.240Z,50.10
2022-12-13T05:15:27.890Z,50.40
2022-12-13T05:17:54.854Z,50.30
2022-12-13T05:20:21.741Z,50.00
2022-12-13T05:22:48.601Z,50.20
2022-12-13T05:25:15.679Z,48.30
2022-12-13T05:27:42.659Z,50.80
2022-12-13T05:30:10.263Z,51.20
2022-12-13T05:32:43.182Z,50.40
2022-12-13T05:35:23.575Z,50.30
2022-12-13T05:37:53.449Z,50.40
2022-12-13T05:40:26.940Z,50.70
2022-12-13T05:43:01.488Z,50.30
2022-12-13T05:45:31.620Z,48.60
2022-12-13T05:48:02.285Z,48.50
2022-12-13T05:50:29.646Z,49.80
2022-12-13T05:52:56.534Z,50.70
2022-12-13T05:55:23.452Z,51.40
2022-12-13T05:57:51.221Z,51.60
2022-12-13T06:00:28.917Z,51.20
2022-12-13T06:03:01.277Z,48.80
2022-12-13T06:05:30.072Z,50.00
2022-12-13T06:07:58.605Z,51.70
2022-12-13T06:10:34.721Z,52.80
2022-12-13T06:13:21.427Z,53.10
2022-12-13T06:15:51.193Z,53.20
2022-12-13T06:18:18.315Z,52.80
2022-12-13T06:20:46.467Z,53.10
2022-12-13T06:23:13.798Z,52.20
2022-12-13T06:25:40.869Z,52.60
2022-12-13T06:28:07.767Z,52.70
2022-12-13T06:30:34.703Z,52.20
2022-12-13T06:33:01.578Z,51.90
2022-12-13T06:35:30.990Z,51.70
2022-12-13T06:38:01.193Z,52.60
2022-12-13T06:40:32.027Z,52.30
2022-12-13T06:42:59.060Z,51.60
2022-12-13T06:45:26.303Z,51.60
2022-12-13T06:47:53.232Z,52.60
2022-12-13T06:50:20.043Z,52.10
2022-12-13T06:52:47.279Z,51.70
2022-12-13T06:55:14.739Z,51.70
2022-12-13T06:57:42.144Z,51.40
2022-12-13T07:00:10.482Z,51.70
2022-12-13T07:02:40.294Z,51.70
2022-12-13T07:05:07.941Z,51.70
2022-12-13T07:07:35.126Z,51.70
2022-12-13T07:10:02.091Z,52.20
2022-12-13T07:12:29.027Z,52.00
2022-12-13T07:14:56.097Z,51.70
2022-12-13T07:17:32.774Z,51.90
2022-12-13T07:20:08.337Z,51.40
2022-12-13T07:22:38.857Z,51.70
2022-12-13T07:25:26.817Z,51.60
2022-12-13T07:28:01.386Z,51.70
2022-12-13T07:30:30.916Z,51.90
2022-12-13T07:32:58.362Z,51.60
2022-12-13T07:35:25.483Z,51.70
2022-12-13T07:37:52.333Z,51.90
2022-12-13T07:40:19.234Z,51.60
2022-12-13T07:42:52.755Z,51.20
2022-12-13T07:45:20.597Z,51.70
2022-12-13T07:47:47.511Z,51.50
2022-12-13T07:50:24.728Z,51.30
2022-12-13T07:52:53.440Z,51.70
2022-12-13T07:55:23.215Z,51.40
2022-12-13T07:58:15.682Z,51.50
2022-12-13T08:00:46.164Z,51.70
2022-12-13T08:03:25.262Z,51.10
2022-12-13T08:06:20.002Z,51.60
2022-12-13T08:08:47.175Z,51.40
2022-12-13T08:11:17.883Z,51.90
2022-12-13T08:13:44.824Z,51.50
2022-12-13T08:16:27.533Z,51.90
2022-12-13T08:19:01.928Z,51.50
2022-12-13T08:21:54.683Z,51.40
2022-12-13T08:24:24.318Z,51.60
2022-12-13T08:26:51.663Z,51.50
2022-12-13T08:29:23.474Z,51.60
2022-12-13T08:32:06.478Z,51.70
2022-12-13T08:34:33.579Z,51.40
2022-12-13T08:37:01.946Z,51.30
2022-12-13T08:39:38.116Z,51.40
2022-12-13T08:42:18.836Z,51.50
2022-12-13T08:44:51.741Z,51.20
2022-12-13T08:47:26.440Z,51.60
2022-12-13T08:49:55.957Z,51.10
2022-12-13T08:52:29.655Z,50.80
2022-12-13T08:54:56.532Z,51.00
2022-12-13T08:57:23.500Z,51.10
2022-12-13T08:59:50.394Z,51.00
2022-12-13T09:02:17.730Z,50.80
2022-12-13T09:04:45.637Z,50.80
2022-12-13T09:07:12.840Z,50.60
2022-12-13T09:09:39.869Z,50.10
2022-12-13T09:12:11.163Z,49.10
2022-12-13T09:15:01.640Z,49.90
2022-12-13T09:17:37.038Z,50.10
2022-12-13T09:20:29.235Z,49.50
2022-12-13T09:23:01.663Z,49.70
2022-12-13T09:25:37.202Z,50.80
2022-12-13T09:28:08.587Z,49.80
2022-12-13T09:30:37.981Z,49.50
2022-12-13T09:33:29.266Z,49.60
2022-12-13T09:35:53.187Z,49.80
2022-12-13T09:38:20.633Z,49.80
2022-12-13T09:40:50.595Z,49.10
2022-12-13T09:43:32.807Z,49.40
2022-12-13T09:46:22.377Z,49.60
2022-12-13T09:48:53.343Z,49.30
2022-12-13T09:51:43.702Z,49.90
2022-12-13T09:54:22.678Z,49.50
2022-12-13T09:56:51.172Z,49.90
2022-12-13T09:59:30.517Z,49.70
2022-12-13T10:02:07.213Z,51.20
2022-12-13T10:04:34.134Z,50.10
2022-12-13T10:07:02.033Z,49.70
2022-12-13T10:09:28.973Z,50.80
2022-12-13T10:11:55.940Z,51.00
2022-12-13T10:14:37.674Z,51.40
2022-12-13T10:17:08.194Z,50.70
2022-12-13T10:19:41.306Z,51.50
2022-12-13T10:22:13.594Z,50.20
2022-12-13T10:25:07.907Z,50.10
2022-12-13T10:27:43.248Z,49.90
2022-12-13T10:30:28.860Z,49.50
2022-12-13T10:32:57.670Z,49.50
2022-12-13T10:35:34.532Z,50.40
2022-12-13T10:38:31.964Z,49.60
2022-12-13T10:41:01.111Z,50.30
2022-12-13T10:43:30.586Z,49.90
2022-12-13T10:45:57.825Z,49.90
2022-12-13T10:48:50.632Z,49.60
2022-12-13T10:51:20.534Z,49.80
2022-12-13T10:53:51.951Z,48.90
2022-12-13T10:56:22.597Z,50.70
2022-12-13T10:59:17.026Z,49.80
2022-12-13T11:01:45.313Z,49.40
2022-12-13T11:04:29.218Z,49.20
2022-12-13T11:06:58.754Z,49.50
2022-12-13T11:09:39.185Z,48.90
2022-12-13T11:12:14.955Z,48.20
2022-12-13T11:14:55.317Z,48.30
2022-12-13T11:17:25.074Z,47.90
2022-12-13T11:19:54.887Z,48.80
2022-12-13T11:22:28.611Z,47.80
2022-12-13T11:25:30.669Z,47.70
2022-12-13T11:28:26.270Z,47.20
2022-12-13T11:31:23.186Z,47.60
2022-12-13T11:34:11.131Z,48.30
2022-12-13T11:36:45.598Z,48.60
2022-12-13T11:39:26.110Z,47.80
2022-12-13T11:42:12.462Z,47.10
2022-12-13T11:45:04.354Z,48.00
2022-12-13T11:47:42.927Z,48.90
2022-12-13T11:50:34.180Z,48.90
2022-12-13T11:53:31.523Z,48.60
2022-12-13T11:56:38.916Z,47.30
2022-12-13T11:59:26.557Z,48.30
2022-12-13T12:02:16.247Z,46.60
2022-12-13T12:04:55.076Z,46.90
2022-12-13T12:08:12.851Z,47.80
2022-12-13T12:10:40.008Z,46.90
2022-12-13T12:13:19.059Z,47.10
2022-12-13T12:16:34.081Z,45.70
2022-12-13T12:19:01.277Z,46.90
2022-12-13T12:22:12.761Z,47.20
2022-12-13T12:25:07.897Z,47.60
2022-12-13T12:28:04.818Z,46.90
2022-12-13T12:30:34.665Z,48.50
2022-12-13T12:33:19.295Z,47.10
2022-12-13T12:36:02.988Z,46.10
2022-12-13T12:38:35.573Z,47.90
2022-12-13T12:41:20.278Z,46.40
2022-12-13T12:44:10.230Z,46.20
2022-12-13T12:47:29.199Z,46.50
2022-12-13T12:50:06.518Z,46.30
2022-12-13T12:52:54.907Z,47.40
2022-12-13T12:55:49.150Z,46.50
2022-12-13T12:58:16.249Z,46.70
2022-12-13T13:01:04.193Z,47.00
2022-12-13T13:03:35.962Z,46.30
2022-12-13T13:06:26.723Z,46.40
2022-12-13T13:09:07.396Z,46.10
2022-12-13T13:11:43.057Z,46.30
2022-12-13T13:14:36.566Z,47.00
2022-12-13T13:17:25.510Z,47.00
2022-12-13T13:20:19.373Z,47.80
2022-12-13T13:22:58.568Z,46.40
2022-12-13T13:25:43.963Z,45.20
2022-12-13T13:28:22.705Z,46.30
2022-12-13T13:31:08.917Z,47.10
2022-12-13T13:33:45.178Z,47.30
2022-12-13T13:36:44.796Z,46.60
2022-12-13T13:39:28.814Z,47.00
2022-12-13T13:42:15.385Z,48.90
2022-12-13T13:44:45.380Z,49.60
2022-12-13T13:47:22.842Z,50.90
2022-12-13T13:50:08.179Z,48.90
2022-12-13T13:52:56.644Z,48.30
2022-12-13T13:55:35.381Z,48.90
2022-12-13T13:58:40.383Z,50.00
2022-12-13T14:01:34.886Z,49.30
2022-12-13T14:04:38.768Z,48.60
2022-12-13T14:07:49.838Z,48.00
2022-12-13T14:10:42.588Z,48.30
2022-12-13T14:13:46.177Z,48.50
2022-12-13T14:16:20.812Z,48.60
2022-12-13T14:18:59.925Z,48.20
2022-12-13T14:21:30.277Z,48.20
2022-12-13T14:24:51.728Z,48.60
2022-12-13T14:27:53.472Z,47.60
2022-12-13T14:30:27.947Z,48.60
2022-12-13T14:32:56.192Z,48.70
2022-12-13T14:35:27.253Z,48.20
2022-12-13T14:38:22.825Z,48.60
2022-12-13T14:40:52.923Z,47.90
2022-12-13T14:43:31.535Z,48.10
2022-12-13T14:46:04.340Z,48.00
2022-12-13T14:48:37.507Z,48.10
2022-12-13T14:51:04.845Z,48.80
2022-12-13T14:53:43.877Z,48.50
2022-12-13T14:56:28.514Z,48.50
2022-12-13T14:59:01.591Z,49.50
2022-12-13T15:01:38.563Z,49.10
2022-12-13T15:04:21.563Z,48.60
2022-12-13T15:07:23.089Z,48.80
2022-12-13T15:09:55.564Z,48.30
2022-12-13T15:12:25.305Z,48.70
2022-12-13T15:15:19.016Z,49.00
2022-12-13T15:17:45.936Z,48.80
2022-12-13T15:20:26.835Z,50.00
2022-12-13T15:23:28.242Z,49.80
2022-12-13T15:26:13.007Z,49.70
2022-12-13T15:28:57.657Z,49.60
2022-12-13T15:31:25.320Z,49.60
2022-12-13T15:33:52.509Z,50.00
2022-12-13T15:36:28.989Z,50.10
2022-12-13T15:38:55.896Z,50.00
2022-12-13T15:41:36.713Z,50.70
2022-12-13T15:44:08.042Z,49.50
2022-12-13T15:46:38.166Z,49.80
2022-12-13T15:49:13.014Z,49.80
2022-12-13T15:51:57.998Z,48.70
2022-12-13T15:54:25.351Z,48.70
2022-12-13T15:57:12.580Z,48.60
2022-12-13T15:59:40.097Z,49.00
2022-12-13T16:02:22.418Z,49.10
2022-12-13T16:04:49.914Z,49.00
2022-12-13T16:07:31.720Z,48.60
2022-12-13T16:09:58.954Z,48.80
2022-12-13T16:12:47.919Z,49.10
2022-12-13T16:15:29.241Z,49.20
2022-12-13T16:18:35.209Z,49.00
2022-12-13T16:21:02.093Z,48.70
2022-12-13T16:23:29.184Z,48.90
2022-12-13T16:25:56.476Z,48.80
2022-12-13T16:28:26.410Z,49.00
2022-12-13T16:30:53.509Z,49.00
2022-12-13T16:33:30.529Z,49.80
2022-12-13T16:35:57.730Z,49.60
2022-12-13T16:38:26.375Z,49.30
2022-12-13T16:40:55.725Z,48.90
2022-12-13T16:43:32.944Z,50.20
2022-12-13T16:47:14.582Z,49.70
2022-12-13T16:48:51.846Z,49.60
2022-12-13T16:51:19.078Z,49.50
2022-12-13T16:53:46.537Z,50.10
2022-12-13T16:56:16.463Z,49.70
2022-12-13T16:58:49.558Z,49.20
2022-12-13T17:01:20.265Z,49.60
2022-12-13T17:03:47.837Z,49.00
2022-12-13T17:06:24.002Z,50.00
2022-12-13T17:08:51.455Z,50.00
2022-12-13T17:11:18.736Z,49.20
2022-12-13T17:13:47.674Z,49.80
2022-12-13T17:16:15.320Z,50.30
2022-12-13T17:18:42.353Z,49.30
2022-12-13T17:21:10.469Z,49.40
2022-12-13T17:23:37.626Z,50.20
2022-12-13T17:26:10.101Z,49.70
2022-12-13T17:28:37.221Z,50.20
2022-12-13T17:31:11.996Z,50.70
2022-12-13T17:33:39.931Z,50.70
2022-12-13T17:36:08.875Z,52.80
2022-12-13T17:38:36.247Z,49.90
2022-12-13T17:41:03.924Z,51.20
2022-12-13T17:43:34.690Z,52.60
2022-12-13T17:46:08.633Z,51.30
2022-12-13T17:48:40.740Z,50.40
2022-12-13T17:51:09.493Z,51.60
2022-12-13T17:53:38.811Z,50.80
2022-12-13T17:56:07.855Z,51.60
2022-12-13T17:58:35.457Z,51.40
2022-12-13T18:01:23.964Z,51.90
2022-12-13T18:03:56.103Z,51.90
2022-12-13T18:06:24.787Z,51.90
2022-12-13T18:08:51.634Z,52.80
2022-12-13T18:11:35.882Z,53.10
2022-12-13T18:14:04.759Z,52.90
2022-12-13T18:16:37.953Z,52.10
2022-12-13T18:19:13.066Z,52.70
2022-12-13T18:21:40.896Z,52.30
2022-12-13T18:24:08.015Z,52.80
2022-12-13T18:26:35.276Z,51.40
2022-12-13T18:29:02.910Z,52.10
2022-12-13T18:31:29.943Z,53.50
2022-12-13T18:33:57.270Z,53.20
2022-12-13T18:36:25.563Z,52.90
2022-12-13T18:38:52.923Z,52.10
2022-12-13T18:41:23.001Z,51.40
2022-12-13T18:43:55.749Z,53.90
2022-12-13T18:46:25.025Z,53.40
2022-12-13T18:48:52.134Z,52.30
2022-12-13T18:51:19.092Z,52.10
2022-12-13T18:53:45.995Z,51.30
2022-12-13T18:56:18.789Z,53.30
2022-12-13T18:58:48.530Z,53.20
2022-12-13T19:01:16.140Z,51.00
2022-12-13T19:03:45.216Z,50.90
2022-12-13T19:06:23.509Z,53.20
2022-12-13T19:08:52.675Z,52.90
2022-12-13T19:11:20.218Z,52.70
2022-12-13T19:13:47.630Z,51.50
2022-12-13T19:16:17.792Z,51.60
2022-12-13T19:18:44.780Z,52.50
2022-12-13T19:21:15.734Z,52.70
2022-12-13T19:23:43.500Z,52.50
2022-12-13T19:26:13.360Z,51.50
2022-12-13T19:28:41.949Z,51.30
2022-12-13T19:31:11.977Z,53.00
2022-12-13T19:33:41.441Z,53.10
2022-12-13T19:36:09.915Z,51.90
2022-12-13T19:38:38.054Z,51.50
2022-12-13T19:41:14.193Z,51.50
2022-12-13T19:43:42.093Z,52.80
2022-12-13T19:46:09.380Z,53.00
2022-12-13T19:48:37.881Z,52.10
2022-12-13T19:51:07.330Z,52.50
2022-12-13T19:53:35.226Z,51.80
2022-12-13T19:56:02.910Z,50.90
2022-12-13T19:58:29.891Z,51.10
2022-12-13T20:01:04.329Z,52.80
2022-12-13T20:03:35.551Z,52.50
2022-12-13T20:06:03.565Z,52.70
2022-12-13T20:08:30.899Z,52.20
2022-12-13T20:11:03.434Z,51.40
2022-12-13T20:13:30.713Z,51.40
2022-12-13T20:15:58.563Z,51.50
2022-12-13T20:18:26.136Z,50.90
2022-12-13T20:21:13.605Z,49.20
2022-12-13T20:23:48.937Z,49.60
2022-12-13T20:26:20.630Z,47.70
2022-12-13T20:28:48.429Z,49.20
2022-12-13T20:31:38.967Z,50.00
2022-12-13T20:34:16.097Z,49.80
2022-12-13T20:36:43.278Z,50.40
2022-12-13T20:39:13.533Z,50.60
2022-12-13T20:41:41.138Z,50.70
2022-12-13T20:44:09.460Z,50.80
2022-12-13T20:46:37.108Z,50.70
2022-12-13T20:49:06.321Z,50.50
2022-12-13T20:51:34.800Z,50.50
2022-12-13T20:54:01.822Z,50.70
2022-12-13T20:56:32.717Z,50.10
2022-12-13T20:59:00.233Z,49.80
2022-12-13T21:01:33.621Z,50.30
2022-12-13T21:04:02.357Z,49.80
2022-12-13T21:06:30.985Z,49.90
2022-12-13T21:09:04.877Z,49.70
2022-12-13T21:11:37.757Z,50.40
2022-12-13T21:14:16.962Z,50.50
2022-12-13T21:16:56.230Z,49.40
2022-12-13T21:19:37.551Z,49.50
2022-12-13T21:22:06.676Z,49.90
2022-12-13T21:24:33.605Z,50.00
2022-12-13T21:27:00.511Z,50.10
2022-12-13T21:29:27.475Z,49.60
2022-12-13T21:31:54.925Z,50.40
2022-12-13T21:34:23.251Z,50.10
2022-12-13T21:36:52.626Z,48.80
2022-12-13T21:39:27.774Z,49.60
2022-12-13T21:41:54.979Z,49.40
2022-12-13T21:44:22.298Z,49.60
2022-12-13T21:49:37.194Z,50.10
2022-12-13T21:52:04.279Z,50.10
2022-12-13T21:54:31.196Z,49.40
2022-12-13T21:57:16.811Z,50.10
2022-12-13T21:59:43.768Z,49.80
2022-12-13T22:02:19.016Z,49.60
2022-12-13T22:05:04.931Z,49.50
2022-12-13T22:07:33.458Z,49.90
2022-12-13T22:10:02.022Z,49.90
2022-12-13T22:12:37.986Z,49.20
2022-12-13T22:15:07.904Z,48.80
2022-12-13T22:17:36.314Z,50.00
2022-12-13T22:20:11.889Z,49.50
2022-12-13T22:22:40.505Z,49.40
2022-12-13T22:25:08.415Z,50.00
2022-12-13T22:27:35.553Z,49.50
2022-12-13T22:30:02.413Z,49.90
2022-12-13T22:32:31.289Z,49.80
2022-12-13T22:34:59.124Z,49.20
2022-12-13T22:37:26.390Z,49.90
2022-12-13T22:39:53.367Z,49.20
2022-12-13T22:42:20.849Z,49.20
2022-12-13T22:44:48.218Z,49.80
2022-12-13T22:47:15.166Z,49.80
2022-12-13T22:49:42.230Z,49.80
2022-12-13T22:52:09.141Z,49.60
2022-12-13T22:54:36.144Z,50.30
2022-12-13T22:57:03.191Z,49.00
2022-12-13T22:59:30.215Z,49.70
2022-12-13T23:02:01.956Z,49.90
2022-12-13T23:04:32.484Z,49.50
2022-12-13T23:06:59.458Z,50.40
2022-12-13T23:09:26.302Z,50.10
2022-12-13T23:12:11.860Z,49.80
2022-12-13T23:14:39.321Z,50.20
2022-12-13T23:17:06.587Z,50.20
2022-12-13T23:19:52.869Z,49.80
2022-12-13T23:22:25.289Z,50.00
2022-12-13T23:24:53.234Z,49.70
2022-12-13T23:27:22.234Z,50.30
2022-12-13T23:29:49.779Z,49.90
2022-12-13T23:32:17.030Z,49.90
2022-12-13T23:34:43.961Z,50.20
2022-12-13T23:37:10.831Z,50.00
2022-12-13T23:39:37.754Z,50.00
2022-12-13T23:42:04.796Z,49.90
2022-12-13T23:44:31.679Z,50.30
2022-12-13T23:46:58.571Z,50.10
2022-12-13T23:49:25.431Z,49.90
2022-12-13T23:51:52.360Z,50.30
2022-12-13T23:54:20.268Z,50.20
2022-12-13T23:56:47.711Z,50.20
2022-12-13T23:59:16.246Z,50.30
